Terminal Aerodrome Forecast
Issued by NWS

Home | Current Version | Previous Version | Text Only | Print | Product List | Glossary On
Versions: 1 2 3 4 5 6 7 8 9 10 11 12 13 14 15
344
FTUS43 KOAX 030238 AAA
TAFCDR
TAF AMD
KCDR 030238Z 0303/0324 05010KT P6SM VCSH SCT060 BKN100
     FM030400 01004KT P6SM SCT110
     FM031000 03008KT 3SM BR SCT120
     FM031400 28007KT P6SM FEW250=

USA.gov is the U.S. government's official web portal to all federal, state and local government web resources and services.